Terminal Aerodrome Forecast
Issued by NWS Quad Cities IA IL

Home | Current Version | Previous Version | Text Only | Print | Product List | Glossary On
Versions: 1 2 3 4 5 6 7 8 9 10 11 12 13 14 15 16 17 18 19 20 21 22 23 24 25 26 27 28 29 30 31 32 33 34 35
000
FTUS43 KDVN 240000 AAA
TAFDBQ
TAF AMD
KDBQ 240045Z 2401/2424 08008KT P6SM OVC018
     FM240300 10008KT P6SM OVC010
     FM241500 11015KT P6SM SCT015 BKN035=

USA.gov is the U.S. government's official web portal to all federal, state and local government web resources and services.